Time;durP1;ratioP1;P1;durP2;ratioP2;P2;SDS_P1;SDS_P2;PMS_P1;PMS_P2;Temp;Humidity;BMP_temperature;BMP_pressure;BME280_temperature;BME280_humidity;BME280_pressure;Samples;Min_cycle;Max_cycle;Signal;HPM_P1;HPM_P2
2022/05/15 00:01:20;;;;;;;10.68;2.05;;;;;;;9.45;100.00;99332.33;1730751;82;21579;-57
2022/05/15 00:03:47;;;;;;;8.15;2.35;;;;;;;9.36;100.00;99324.44;1747674;81;20971;-57
2022/05/15 00:06:15;;;;;;;4.83;2.20;;;;;;;9.30;100.00;99339.95;1734836;81;21058;-57
2022/05/15 00:08:42;;;;;;;9.60;2.52;;;;;;;9.23;100.00;99338.05;1742261;81;21058;-58
2022/05/15 00:11:13;;;;;;;6.83;2.30;;;;;;;9.23;100.00;99339.95;1707832;83;21078;-57
2022/05/15 00:13:39;;;;;;;6.75;2.60;;;;;;;9.27;100.00;99339.14;1701874;83;21034;-57
2022/05/15 00:16:06;;;;;;;5.12;2.60;;;;;;;9.27;100.00;99336.96;1681652;85;21121;-57
2022/05/15 00:18:32;;;;;;;9.85;3.15;;;;;;;9.22;100.00;99340.48;1673330;85;21077;-57
2022/05/15 00:21:00;;;;;;;10.05;2.72;;;;;;;9.18;100.00;99343.47;1683347;84;21564;-58
2022/05/15 00:23:27;;;;;;;8.43;2.87;;;;;;;9.16;100.00;99342.12;1695033;83;21092;-57
2022/05/15 00:25:53;;;;;;;8.20;2.30;;;;;;;9.20;100.00;99339.14;1687820;85;21097;-57
2022/05/15 00:28:21;;;;;;;6.00;2.40;;;;;;;9.15;100.00;99335.05;1694249;83;21062;-57
2022/05/15 00:30:50;;;;;;;8.65;2.50;;;;;;;9.06;100.00;99336.70;1694593;84;21094;-57
2022/05/15 00:33:16;;;;;;;;;;;;;;;8.97;100.00;99333.69;1690984;83;21480;-57
2022/05/15 00:35:43;;;;;;;10.70;2.47;;;;;;;8.95;100.00;99335.34;1679715;84;20119;-57
2022/05/15 00:38:09;;;;;;;;;;;;;;;8.94;100.00;99335.59;1690674;83;21572;-57
2022/05/15 00:40:41;;;;;;;6.90;2.20;;;;;;;8.92;100.00;99336.42;1696924;84;20668;-58
2022/05/15 00:43:33;;;;;;;8.20;2.27;;;;;;;8.79;100.00;99340.46;1694866;84;21035;-59
2022/05/15 00:46:01;;;;;;;5.92;2.37;;;;;;;8.73;100.00;99338.83;1691245;84;21102;-57
2022/05/15 00:48:28;;;;;;;7.05;2.00;;;;;;;8.73;100.00;99332.05;1684239;84;21068;-57
2022/05/15 00:50:54;;;;;;;;;;;;;;;8.77;100.00;99329.61;1697219;84;21537;-57
2022/05/15 00:53:21;;;;;;;6.85;2.50;;;;;;;8.74;100.00;99330.97;1662644;84;20132;-57
2022/05/15 00:55:50;;;;;;;6.47;2.67;;;;;;;8.62;100.00;99328.22;1679932;84;21146;-57
2022/05/15 00:58:27;;;;;;;4.37;2.10;;;;;;;8.56;100.00;99326.59;1681201;84;21098;-57
2022/05/15 01:00:54;;;;;;;4.97;2.52;;;;;;;8.56;100.00;99337.45;1686575;84;21090;-57
2022/05/15 01:03:21;;;;;;;7.65;2.37;;;;;;;8.60;100.00;99333.11;1684323;84;21107;-57
2022/05/15 01:05:54;;;;;;;4.22;2.12;;;;;;;8.58;100.00;99336.09;1676599;85;21512;-57
2022/05/15 01:08:23;;;;;;;6.92;2.65;;;;;;;8.50;100.00;99341.48;1691169;84;21353;-57
2022/05/15 01:10:52;;;;;;;7.83;2.25;;;;;;;8.42;100.00;99340.67;1718045;82;21602;-56
2022/05/15 01:13:20;;;;;;;7.00;2.35;;;;;;;8.46;100.00;99343.67;1710158;82;21016;-56
2022/05/15 01:15:47;;;;;;;8.28;2.60;;;;;;;8.50;100.00;99342.05;1709013;82;21075;-56
2022/05/15 01:18:28;;;;;;;6.85;2.92;;;;;;;8.48;100.00;99336.06;1717700;82;21653;-57
2022/05/15 01:20:57;;;;;;;7.00;2.67;;;;;;;8.41;100.00;99324.66;1720189;82;21107;-57
2022/05/15 01:23:24;;;;;;;6.25;3.00;;;;;;;8.42;100.00;99324.94;1731562;82;21000;-57
2022/05/15 01:25:51;;;;;;;6.58;2.83;;;;;;;8.47;100.00;99321.69;1732380;82;21099;-57
2022/05/15 01:28:22;;;;;;;6.47;3.00;;;;;;;8.46;100.00;99316.01;1727374;82;21138;-56
2022/05/15 01:30:52;;;;;;;5.78;2.60;;;;;;;8.41;100.00;99321.94;1707829;82;21652;-57
2022/05/15 01:33:18;;;;;;;5.65;2.67;;;;;;;8.38;100.00;99324.66;1717417;82;20980;-57
2022/05/15 01:35:45;;;;;;;6.92;3.08;;;;;;;8.42;100.00;99317.63;1706289;82;21000;-57
2022/05/15 01:38:11;;;;;;;7.12;3.05;;;;;;;8.46;100.00;99325.50;1709685;82;21058;-57
2022/05/15 01:40:40;;;;;;;8.10;2.60;;;;;;;8.47;100.00;99327.64;1716307;82;21047;-57
2022/05/15 01:43:07;;;;;;;7.87;3.00;;;;;;;8.42;100.00;99322.23;1720498;82;20968;-57
2022/05/15 01:45:34;;;;;;;7.80;2.90;;;;;;;8.38;100.00;99315.16;1722810;82;21537;-56
2022/05/15 01:48:01;;;;;;;7.40;2.95;;;;;;;8.43;100.00;99310.30;1727075;82;20996;-57
2022/05/15 01:50:29;;;;;;;6.83;2.80;;;;;;;8.49;100.00;99312.75;1725685;82;21055;-56
2022/05/15 01:52:57;;;;;;;9.85;3.10;;;;;;;8.49;100.00;99311.39;1709382;82;21550;-57
2022/05/15 01:55:23;;;;;;;7.37;3.27;;;;;;;8.45;100.00;99310.30;1711387;82;21168;-56
2022/05/15 01:57:50;;;;;;;6.40;2.92;;;;;;;8.42;100.00;99306.77;1684681;84;21637;-57
2022/05/15 02:00:20;;;;;;;10.32;3.30;;;;;;;8.46;100.00;99302.98;1681624;84;21086;-57
2022/05/15 02:02:48;;;;;;;6.35;3.10;;;;;;;8.48;100.00;99293.48;1718701;82;21576;-56
2022/05/15 02:05:16;;;;;;;7.67;3.40;;;;;;;8.49;100.00;99290.23;1740573;82;21114;-56
2022/05/15 02:07:43;;;;;;;6.28;3.37;;;;;;;8.43;100.00;99286.68;1720609;82;21051;-55
2022/05/15 02:10:10;;;;;;;8.10;3.20;;;;;;;8.45;100.00;99291.31;1733694;82;21058;-56
2022/05/15 02:12:37;;;;;;;8.03;3.05;;;;;;;8.54;100.00;99297.57;1720446;82;21074;-57
2022/05/15 02:15:06;;;;;;;9.23;3.80;;;;;;;8.58;100.00;99308.13;1738515;81;21510;-57
2022/05/15 02:17:32;;;;;;;8.95;3.25;;;;;;;8.57;100.00;99306.53;1720749;82;21082;-57
2022/05/15 02:19:59;;;;;;;6.97;3.58;;;;;;;8.62;100.00;99302.45;1731516;82;21088;-57
2022/05/15 02:22:26;;;;;;;7.12;3.75;;;;;;;8.73;100.00;99304.09;1728172;82;21121;-56
2022/05/15 02:24:53;;;;;;;7.78;3.87;;;;;;;8.78;100.00;99305.47;1740927;82;21023;-56
2022/05/15 02:27:21;;;;;;;7.87;3.60;;;;;;;8.79;100.00;99308.43;1725073;82;21094;-55
2022/05/15 02:29:48;;;;;;;9.05;3.83;;;;;;;8.80;100.00;99311.42;1726399;82;21023;-58
2022/05/15 02:32:15;;;;;;;6.58;3.20;;;;;;;8.84;100.00;99318.77;1738600;82;21083;-57
2022/05/15 02:34:41;;;;;;;7.72;3.20;;;;;;;8.94;100.00;99316.05;1702812;82;21977;-58
2022/05/15 02:37:08;;;;;;;;;;;;;;;8.96;100.00;99319.30;1732899;82;21023;-57
2022/05/15 02:39:34;;;;;;;9.80;3.75;;;;;;;8.90;100.00;99322.28;1739894;82;20446;-58
2022/05/15 02:42:01;;;;;;;6.53;3.20;;;;;;;8.76;100.00;99322.55;1728775;82;21611;-57
2022/05/15 02:44:29;;;;;;;8.58;3.30;;;;;;;8.77;100.00;99324.19;1724722;82;21066;-57
2022/05/15 02:46:56;;;;;;;7.10;3.42;;;;;;;8.82;100.00;99322.27;1741122;82;21082;-57
2022/05/15 02:52:07;;;;;;;10.13;3.80;;;;;;;8.85;100.00;99332.62;1729197;82;21589;-58
2022/05/15 02:54:34;;;;;;;6.35;3.30;;;;;;;8.83;100.00;99336.66;1723152;82;21569;-57
2022/05/15 02:59:41;;;;;;;10.90;3.63;;;;;;;9.03;100.00;99324.48;1798914;78;22528;-56
2022/05/15 03:02:07;;;;;;;8.05;3.75;;;;;;;9.05;100.00;99333.70;1752805;80;21114;-57
2022/05/15 03:04:36;;;;;;;7.12;3.33;;;;;;;9.04;100.00;99330.16;1755596;82;21074;-57
2022/05/15 03:07:05;;;;;;;7.28;2.92;;;;;;;9.08;100.00;99339.40;1711258;82;21118;-57
2022/05/15 03:09:32;;;;;;;9.03;3.17;;;;;;;9.18;100.00;99340.75;1739685;81;21054;-57
2022/05/15 03:11:59;;;;;;;10.90;3.77;;;;;;;9.25;100.00;99341.30;1738142;81;21033;-57
2022/05/15 03:14:26;;;;;;;9.73;3.90;;;;;;;9.27;100.00;99341.85;1729809;82;21553;-57
2022/05/15 03:16:52;;;;;;;7.62;4.03;;;;;;;9.29;100.00;99348.35;1750162;80;21130;-57
2022/05/15 03:19:19;;;;;;;8.10;3.42;;;;;;;9.38;100.00;99339.95;1744633;81;21046;-58
2022/05/15 03:21:46;;;;;;;10.10;3.80;;;;;;;9.48;100.00;99336.67;1740929;81;21113;-57
2022/05/15 03:24:12;;;;;;;7.17;3.25;;;;;;;9.48;100.00;99336.67;1754208;81;21151;-57
2022/05/15 03:26:42;;;;;;;7.42;3.40;;;;;;;9.47;100.00;99332.85;1741349;81;21563;-57
2022/05/15 03:29:09;;;;;;;8.93;3.00;;;;;;;9.57;100.00;99334.19;1753580;81;21478;-57
2022/05/15 03:31:38;;;;;;;7.95;3.00;;;;;;;9.69;100.00;99340.70;1751718;80;21066;-57
2022/05/15 03:34:07;;;;;;;9.15;3.72;;;;;;;9.72;100.00;99343.67;1745422;81;20971;-57
2022/05/15 03:36:33;;;;;;;6.97;3.30;;;;;;;9.71;100.00;99343.94;1747907;80;21034;-57
2022/05/15 03:39:00;;;;;;;7.67;3.05;;;;;;;9.75;100.00;99337.69;1753591;82;21068;-57
2022/05/15 03:41:27;;;;;;;9.40;3.45;;;;;;;9.86;100.00;99336.58;1754696;80;21047;-57
2022/05/15 03:43:53;;;;;;;9.98;3.27;;;;;;;9.93;100.00;99338.99;1747659;81;21530;-57
2022/05/15 03:46:20;;;;;;;6.78;3.45;;;;;;;9.92;100.00;99342.80;1752412;80;21114;-57
2022/05/15 03:48:47;;;;;;;9.90;3.37;;;;;;;9.88;100.00;99341.17;1748386;82;21057;-58
2022/05/15 03:51:14;;;;;;;;;;;;;;;9.92;100.00;99346.33;1750124;80;21087;-58
2022/05/15 03:53:41;;;;;;;6.58;3.10;;;;;;;10.00;100.00;99353.11;1747873;81;20114;-57
2022/05/15 03:56:09;;;;;;;7.85;3.33;;;;;;;9.98;100.00;99341.17;1749896;80;21057;-57
2022/05/15 03:58:37;;;;;;;7.15;3.50;;;;;;;10.00;100.00;99347.13;1736937;82;21055;-57
2022/05/15 04:01:05;;;;;;;6.65;3.08;;;;;;;9.99;100.00;99355.01;1735650;81;21442;-57
2022/05/15 04:03:32;;;;;;;10.43;3.25;;;;;;;10.06;100.00;99355.28;1692420;84;21067;-58
2022/05/15 04:05:58;;;;;;;9.98;3.27;;;;;;;10.14;100.00;99349.25;1673557;84;21060;-58
2022/05/15 04:08:27;;;;;;;9.70;3.45;;;;;;;10.18;100.00;99356.61;1722306;82;21045;-58
2022/05/15 04:10:55;;;;;;;10.55;4.00;;;;;;;10.14;100.00;99363.70;1737916;81;21659;-58
2022/05/15 04:13:23;;;;;;;7.47;2.70;;;;;;;10.18;100.00;99355.80;1729117;82;21583;-57
2022/05/15 04:15:50;;;;;;;7.58;2.80;;;;;;;10.32;100.00;99352.74;1739347;81;21043;-58
2022/05/15 04:18:17;;;;;;;7.37;2.83;;;;;;;10.43;100.00;99351.06;1734460;82;21111;-58
2022/05/15 04:20:43;;;;;;;8.70;3.08;;;;;;;10.44;100.00;99349.98;1738229;81;21428;-58
2022/05/15 04:23:10;;;;;;;8.45;3.30;;;;;;;10.48;100.00;99344.25;1742012;82;21560;-58
2022/05/15 04:25:37;;;;;;;7.85;3.08;;;;;;;10.51;100.00;99341.50;1727985;81;21135;-56
2022/05/15 04:28:04;;;;;;;9.35;3.20;;;;;;;10.63;100.00;99339.81;1710769;82;21058;-58
2022/05/15 04:30:32;;;;;;;7.70;3.00;;;;;;;10.80;100.00;99340.23;1735030;81;21110;-58
2022/05/15 04:32:58;;;;;;;8.93;3.22;;;;;;;10.88;100.00;99335.53;1698254;84;21059;-58
2022/05/15 04:35:25;;;;;;;;;;;;;;;10.92;100.00;99336.05;1662976;85;21108;-58
2022/05/15 04:37:53;;;;;;;8.53;2.72;;;;;;;10.96;100.00;99335.75;1678995;85;20117;-57
2022/05/15 04:40:20;;;;;;;6.12;2.80;;;;;;;10.99;100.00;99328.92;1737971;81;21131;-57
2022/05/15 04:42:47;;;;;;;7.55;2.90;;;;;;;11.09;100.00;99335.64;1740931;82;20972;-58
2022/05/15 04:45:13;;;;;;;7.17;2.95;;;;;;;11.16;100.00;99340.22;1731030;81;21095;-58
2022/05/15 04:47:40;;;;;;;7.22;2.70;;;;;;;11.22;100.00;99334.20;1736470;82;21510;-58
2022/05/15 04:50:08;;;;;;;7.35;2.72;;;;;;;11.33;100.00;99342.55;1680506;82;21549;-61
2022/05/15 04:52:35;;;;;;;8.05;2.98;;;;;;;11.47;100.00;99340.78;1734252;81;20991;-58
2022/05/15 04:55:01;;;;;;;9.10;2.98;;;;;;;11.51;100.00;99345.11;1729046;82;21050;-59
2022/05/15 04:57:28;;;;;;;10.88;2.70;;;;;;;11.73;100.00;99338.08;1678328;83;21051;-58
2022/05/15 04:59:55;;;;;;;7.97;2.98;;;;;;;12.15;100.00;99344.73;1648808;85;21539;-58
2022/05/15 05:02:22;;;;;;;6.75;3.02;;;;;;;12.45;100.00;99345.14;1729475;81;21011;-58
2022/05/15 05:04:48;;;;;;;7.30;2.90;;;;;;;12.58;100.00;99338.13;1727661;81;21138;-57
2022/05/15 05:07:16;;;;;;;7.97;2.60;;;;;;;12.71;100.00;99343.44;1728875;81;21059;-58
2022/05/15 05:09:43;;;;;;;9.55;2.98;;;;;;;12.69;100.00;99329.24;1733449;81;21032;-57
2022/05/15 05:12:10;;;;;;;;;;;;;;;12.72;100.00;99338.20;1739811;81;21082;-58
2022/05/15 05:14:37;;;;;;;5.22;2.80;;;;;;;12.68;100.00;99329.01;1716684;82;20115;-58
2022/05/15 05:17:04;;;;;;;;;;;;;;;12.60;100.00;99348.22;1738056;82;21160;-58
2022/05/15 05:19:30;;;;;;;9.83;3.08;;;;;;;12.56;100.00;99349.91;1732435;81;20099;-58
2022/05/15 05:21:57;;;;;;;8.50;2.90;;;;;;;12.43;100.00;99337.78;1730737;81;21517;-58
2022/05/15 05:24:24;;;;;;;;;;;;;;;12.47;100.00;99338.83;1722141;82;21062;-58
2022/05/15 05:26:50;;;;;;;12.47;3.03;;;;;;;12.50;100.00;99342.09;1718929;81;20135;-58
2022/05/15 05:29:17;;;;;;;8.40;3.15;;;;;;;12.45;100.00;99347.06;1734734;81;21084;-57
2022/05/15 05:31:43;;;;;;;6.12;2.60;;;;;;;12.50;100.00;99347.55;1721556;81;21062;-57
2022/05/15 05:34:10;;;;;;;;;;;;;;;12.63;100.00;99350.91;1742001;81;21099;-57
2022/05/15 05:36:36;;;;;;;6.45;3.08;;;;;;;12.76;100.00;99350.17;1733423;81;20437;-57
2022/05/15 05:39:03;;;;;;;9.70;2.98;;;;;;;12.75;100.00;99351.30;1724511;81;21098;-57
2022/05/15 05:41:29;;;;;;;10.68;3.30;;;;;;;12.80;100.00;99347.92;1702532;82;21055;-59
2022/05/15 05:43:56;;;;;;;;;;;;;;;12.89;100.00;99346.14;1725574;82;21021;-57
2022/05/15 05:46:23;;;;;;;6.83;2.58;;;;;;;12.94;100.00;99343.34;1730282;82;20139;-57
2022/05/15 05:48:50;;;;;;;6.33;2.90;;;;;;;12.95;100.00;99336.78;1735861;81;21577;-57
2022/05/15 05:51:16;;;;;;;6.33;2.70;;;;;;;13.04;100.00;99341.00;1739417;81;21603;-58
2022/05/15 05:53:45;;;;;;;8.43;3.47;;;;;;;13.03;100.00;99340.77;1731017;82;21014;-56
2022/05/15 05:56:11;;;;;;;10.75;3.85;;;;;;;13.07;100.00;99345.90;1703220;82;21059;-57
2022/05/15 05:58:38;;;;;;;9.43;3.33;;;;;;;13.11;100.00;99338.73;1702851;83;21028;-56
2022/05/15 06:01:05;;;;;;;11.03;3.30;;;;;;;13.15;100.00;99344.41;1737475;81;21043;-54
2022/05/15 06:06:18;;;;;;;7.40;2.62;;;;;;;13.33;100.00;99345.75;1733919;81;21100;-56
2022/05/15 06:08:45;;;;;;;9.08;2.90;;;;;;;13.40;100.00;99344.81;1738783;82;21063;-54
2022/05/15 06:11:11;;;;;;;8.08;2.05;;;;;;;13.49;100.00;99342.77;1733933;81;21155;-56
2022/05/15 06:13:39;;;;;;;6.37;2.65;;;;;;;13.56;100.00;99350.03;1730192;82;21059;-55
2022/05/15 06:18:24;;;;;;;6.37;2.90;;;;;;;13.68;100.00;99329.27;1808750;78;22880;-56
2022/05/15 06:20:50;;;;;;;7.03;2.00;;;;;;;13.72;100.00;99330.30;1772678;80;21973;-56
2022/05/15 06:23:18;;;;;;;7.28;2.55;;;;;;;13.83;100.00;99326.26;1773135;80;21073;-56
2022/05/15 06:25:44;;;;;;;7.10;2.27;;;;;;;13.90;100.00;99322.56;1779522;79;21109;-59
2022/05/15 06:28:11;;;;;;;7.03;2.30;;;;;;;13.99;100.00;99325.97;1790684;80;21452;-58
2022/05/15 06:30:37;;;;;;;8.08;2.12;;;;;;;14.13;100.00;99320.75;1787513;80;21552;-59
2022/05/15 06:33:05;;;;;;;6.00;2.25;;;;;;;14.47;100.00;99327.73;1757393;80;21074;-58
2022/05/15 06:35:32;;;;;;;6.05;2.15;;;;;;;14.95;100.00;99315.11;1747489;80;21081;-59
2022/05/15 06:38:03;;;;;;;5.50;1.95;;;;;;;15.25;100.00;99316.30;1785955;80;21463;-59
2022/05/15 06:40:30;;;;;;;7.60;2.33;;;;;;;15.31;100.00;99307.63;1778124;80;21101;-59
2022/05/15 06:42:57;;;;;;;;;;;;;;;15.64;100.00;99311.48;1793851;80;21038;-59
2022/05/15 06:45:24;;;;;;;4.95;1.82;;;;;;;16.12;100.00;99304.09;1788642;80;20142;-58
2022/05/15 06:47:51;;;;;;;6.85;2.12;;;;;;;16.56;100.00;99297.60;1778823;79;21450;-59
2022/05/15 06:50:17;;;;;;;11.50;2.77;;;;;;;17.09;100.00;99290.97;1790704;80;21035;-59
2022/05/15 06:52:45;;;;;;;6.50;2.00;;;;;;;17.47;100.00;99282.80;1782675;80;21042;-58
2022/05/15 06:55:18;;;;;;;5.70;2.10;;;;;;;17.84;100.00;99286.20;1788841;79;21113;-58
2022/05/15 06:57:47;;;;;;;5.70;2.05;;;;;;;18.09;100.00;99284.47;1786318;80;20999;-58
2022/05/15 07:00:19;;;;;;;7.80;2.50;;;;;;;18.24;100.00;99287.47;1784148;79;21043;-58
2022/05/15 07:02:46;;;;;;;6.72;2.20;;;;;;;18.34;100.00;99291.22;1787134;80;21023;-58
2022/05/15 07:05:22;;;;;;;6.78;2.15;;;;;;;18.77;100.00;99282.68;1788723;80;21023;-58
2022/05/15 07:07:55;;;;;;;7.60;2.15;;;;;;;19.26;100.00;99278.17;1789401;79;21065;-59
2022/05/15 07:10:22;;;;;;;4.50;1.65;;;;;;;19.42;100.00;99275.59;1768032;80;21075;-59
2022/05/15 07:12:50;;;;;;;6.10;2.00;;;;;;;19.29;100.00;99278.87;1784725;80;21531;-57
2022/05/15 07:15:18;;;;;;;8.38;1.80;;;;;;;18.94;100.00;99276.77;1790673;79;21584;-57
2022/05/15 07:17:45;;;;;;;6.80;2.10;;;;;;;18.75;100.00;99271.16;1779859;80;21021;-58
2022/05/15 07:20:12;;;;;;;5.15;1.92;;;;;;;18.90;100.00;99280.78;1771586;81;21185;-59
2022/05/15 07:22:39;;;;;;;6.70;2.00;;;;;;;19.07;100.00;99282.00;1743408;81;21076;-58
2022/05/15 07:25:06;;;;;;;6.05;2.17;;;;;;;19.13;100.00;99277.09;1757756;80;21000;-58
2022/05/15 07:27:33;;;;;;;6.78;2.40;;;;;;;19.30;100.00;99265.31;1754645;80;21054;-58
2022/05/15 07:29:59;;;;;;;6.20;1.80;;;;;;;19.34;100.00;99279.23;1759299;80;20988;-58
2022/05/15 07:32:26;;;;;;;5.90;2.00;;;;;;;19.01;100.00;99277.03;1759219;80;21062;-58
2022/05/15 07:34:52;;;;;;;7.10;1.85;;;;;;;18.99;100.00;99273.81;1765033;79;21430;-57
2022/05/15 07:37:19;;;;;;;6.53;1.50;;;;;;;18.94;100.00;99281.72;1771474;80;21082;-59
2022/05/15 07:39:45;;;;;;;7.62;2.00;;;;;;;18.87;100.00;99273.18;1768205;80;20984;-59
2022/05/15 07:42:12;;;;;;;5.97;1.90;;;;;;;18.96;100.00;99279.42;1759738;79;21059;-58
2022/05/15 07:44:39;;;;;;;5.97;1.90;;;;;;;18.89;100.00;99276.39;1760169;81;21159;-58
2022/05/15 07:47:05;;;;;;;4.62;1.67;;;;;;;18.73;100.00;99282.30;1761393;79;21099;-58
2022/05/15 07:49:33;;;;;;;6.97;1.90;;;;;;;18.46;100.00;99278.06;1773519;80;21555;-57
2022/05/15 07:52:00;;;;;;;6.00;1.50;;;;;;;18.34;100.00;99281.57;1762124;80;21631;-58
2022/05/15 07:54:27;;;;;;;6.92;1.72;;;;;;;18.37;100.00;99284.22;1761198;80;21016;-58
2022/05/15 07:56:53;;;;;;;7.20;2.10;;;;;;;18.29;100.00;99279.00;1773766;80;21051;-58
2022/05/15 07:59:20;;;;;;;7.35;1.75;;;;;;;18.18;100.00;99290.16;1764908;79;20993;-58
2022/05/15 08:01:46;;;;;;;9.05;2.27;;;;;;;18.08;100.00;99276.77;1774414;79;21550;-58
2022/05/15 08:04:13;;;;;;;9.93;2.10;;;;;;;17.85;100.00;99276.22;1764085;80;20976;-58
2022/05/15 08:09:09;;;;;;;7.70;1.95;;;;;;;17.43;100.00;99280.70;1680332;80;20984;-58
2022/05/15 08:11:36;;;;;;;5.65;1.62;;;;;;;17.27;100.00;99274.12;1762361;81;21794;-58
2022/05/15 08:14:04;;;;;;;5.85;1.52;;;;;;;17.18;100.00;99277.44;1766597;80;20976;-57
2022/05/15 08:16:32;;;;;;;5.50;1.70;;;;;;;17.06;100.00;99280.62;1780990;80;21543;-57
2022/05/15 08:24:28;;;;;;;7.70;1.70;;;;;;;16.48;100.00;99279.13;1753222;79;20960;-57
2022/05/15 08:26:56;;;;;;;6.47;1.98;;;;;;;16.32;100.00;99289.78;1745977;82;21055;-58
2022/05/15 08:29:22;;;;;;;5.78;1.85;;;;;;;16.19;100.00;99282.46;1778721;80;20941;-59
2022/05/15 08:31:48;;;;;;;;;;;;;;;16.12;100.00;99277.22;1782517;80;21027;-57
2022/05/15 08:34:17;;;;;;;6.17;1.80;;;;;;;16.08;100.00;99277.05;1779907;80;20128;-58
2022/05/15 08:36:45;;;;;;;6.37;1.80;;;;;;;16.05;100.00;99273.54;1781160;79;21115;-57
2022/05/15 08:39:12;;;;;;;5.30;1.52;;;;;;;16.46;100.00;99277.28;1780182;80;21423;-57
2022/05/15 08:42:10;;;;;;;7.42;1.70;;;;;;;17.14;100.00;99264.13;1757824;80;21073;-58
2022/05/15 08:44:41;;;;;;;5.42;1.75;;;;;;;17.63;100.00;99275.11;1758888;79;21031;-57
2022/05/15 08:47:36;;;;;;;7.65;1.70;;;;;;;17.70;100.00;99262.21;1756312;79;21066;-57
2022/05/15 08:50:12;;;;;;;5.42;1.50;;;;;;;17.75;100.00;99270.27;1775703;80;20975;-57
2022/05/15 08:53:00;;;;;;;7.53;1.42;;;;;;;17.61;100.00;99261.42;1767965;79;21541;-57
2022/05/15 08:55:44;;;;;;;6.53;1.52;;;;;;;17.43;100.00;99269.48;1776478;79;21057;-58
2022/05/15 08:58:21;;;;;;;6.40;1.85;;;;;;;17.73;100.00;99267.05;1768554;80;21003;-58
2022/05/15 09:00:50;;;;;;;9.05;1.52;;;;;;;18.37;100.00;99264.37;1782505;80;21031;-58
2022/05/15 09:03:21;;;;;;;4.80;1.37;;;;;;;18.57;100.00;99263.35;1764829;80;21059;-58
2022/05/15 09:05:56;;;;;;;9.53;1.47;;;;;;;18.59;96.74;99256.38;1776132;79;21548;-57
2022/05/15 09:09:01;;;;;;;6.55;1.60;;;;;;;18.50;100.00;99254.78;1758540;79;20999;-58
2022/05/15 09:11:55;;;;;;;7.12;1.55;;;;;;;18.45;97.63;99254.43;1776242;79;21547;-57
2022/05/15 09:14:47;;;;;;;5.22;1.82;;;;;;;18.32;92.74;99256.84;1777895;80;21019;-58
2022/05/15 09:17:46;;;;;;;6.75;1.75;;;;;;;18.19;90.37;99254.59;1774447;80;21118;-56
2022/05/15 09:20:21;;;;;;;4.85;1.40;;;;;;;18.07;85.72;99255.86;1767137;80;21056;-59
2022/05/15 09:23:04;;;;;;;7.58;1.87;;;;;;;17.87;94.65;99251.93;1758544;80;21036;-59
2022/05/15 09:25:35;;;;;;;5.83;1.85;;;;;;;17.88;96.71;99256.88;1763656;79;21003;-57
2022/05/15 09:28:12;;;;;;;7.70;2.10;;;;;;;17.94;100.00;99258.30;1772150;81;21512;-56
2022/05/15 09:30:45;;;;;;;8.45;1.52;;;;;;;18.02;100.00;99252.51;1759777;80;21023;-58
2022/05/15 09:33:33;;;;;;;8.03;1.85;;;;;;;18.04;93.22;99248.84;1768588;79;21034;-59
2022/05/15 09:36:25;;;;;;;5.92;1.80;;;;;;;17.91;100.00;99252.08;1761058;79;21516;-57
2022/05/15 09:39:12;;;;;;;8.23;4.12;;;;;;;17.81;100.00;99256.58;1751007;79;21016;-55
2022/05/15 09:44:33;;;;;;;9.10;2.95;;;;;;;17.99;100.00;99254.55;1755905;81;20157;-56
2022/05/15 09:47:13;;;;;;;11.88;6.05;;;;;;;17.98;100.00;99255.11;1771641;80;21054;-55
2022/05/15 09:49:39;;;;;;;5.95;1.67;;;;;;;18.13;100.00;99250.42;1769869;80;21060;-57
2022/05/15 09:52:13;;;;;;;7.95;1.77;;;;;;;18.17;99.30;99230.72;1756590;80;21055;-57
2022/05/15 09:54:43;;;;;;;9.83;2.05;;;;;;;18.08;100.00;99244.28;1766491;80;20988;-56
2022/05/15 09:57:22;;;;;;;6.45;1.75;;;;;;;18.07;100.00;99239.91;1751766;80;21078;-54
2022/05/15 10:00:00;;;;;;;20.10;8.68;;;;;;;18.17;100.00;99238.17;1757019;80;20953;-56
2022/05/15 10:02:42;;;;;;;15.45;7.70;;;;;;;18.37;100.00;99235.44;1766212;80;21031;-58
2022/05/15 10:05:27;;;;;;;9.60;3.42;;;;;;;18.59;98.32;99234.90;1759921;81;20928;-56
2022/05/15 10:08:10;;;;;;;5.22;1.60;;;;;;;18.73;88.24;99229.91;1756211;80;21010;-55
2022/05/15 10:10:58;;;;;;;5.60;1.80;;;;;;;18.85;84.74;99234.09;1749840;80;21020;-55
2022/05/15 10:13:42;;;;;;;6.40;2.00;;;;;;;18.89;82.96;99232.27;1747154;80;21498;-56
2022/05/15 10:16:22;;;;;;;4.72;1.45;;;;;;;18.95;79.28;99237.83;1772979;81;21118;-54
2022/05/15 10:19:06;;;;;;;6.00;1.67;;;;;;;18.97;80.58;99256.22;1736959;80;21091;-55
2022/05/15 10:21:41;;;;;;;7.95;1.72;;;;;;;18.85;71.56;99239.60;1733067;80;21124;-55
2022/05/15 10:24:28;;;;;;;5.42;1.65;;;;;;;18.49;73.24;99241.59;1728881;80;21042;-56
2022/05/15 10:27:18;;;;;;;5.65;1.70;;;;;;;18.29;77.05;99249.25;1729125;82;21129;-56
2022/05/15 10:30:15;;;;;;;6.15;3.22;;;;;;;18.21;82.76;99239.12;1736260;80;21014;-55
2022/05/15 10:33:02;;;;;;;7.40;1.77;;;;;;;18.23;83.81;99250.60;1732721;80;20995;-56
2022/05/15 10:35:37;;;;;;;8.37;1.67;;;;;;;18.30;91.29;99241.23;1736099;82;21081;-55
2022/05/15 10:38:21;;;;;;;6.00;1.67;;;;;;;18.52;81.92;99244.27;1734766;80;21031;-57
2022/05/15 10:40:59;;;;;;;10.90;1.77;;;;;;;18.36;82.57;99248.97;1742886;82;21526;-57
2022/05/15 10:43:59;;;;;;;9.33;5.58;;;;;;;18.19;84.93;99241.38;1735812;82;21538;-57
2022/05/15 10:46:45;;;;;;;7.67;2.77;;;;;;;18.21;91.47;99248.16;1741045;82;21047;-56
2022/05/15 10:49:36;;;;;;;27.35;21.27;;;;;;;18.20;87.34;99242.44;1734623;82;21039;-54
2022/05/15 10:52:14;;;;;;;7.42;2.90;;;;;;;18.08;94.40;99250.60;1730297;81;21095;-55
2022/05/15 10:58:05;;;;;;;5.78;1.98;;;;;;;17.94;96.32;99252.78;1752632;82;21137;-56
2022/05/15 11:00:45;;;;;;;10.70;2.02;;;;;;;17.96;94.11;99245.58;1735010;82;21666;-54
2022/05/15 11:03:48;;;;;;;11.18;2.27;;;;;;;17.88;93.78;99248.61;1725206;82;21013;-55
2022/05/15 11:06:37;;;;;;;18.35;11.15;;;;;;;17.84;95.05;99262.80;1716740;82;21135;-55
2022/05/15 11:09:23;;;;;;;22.17;15.60;;;;;;;17.82;97.63;99262.30;1739714;80;21031;-57
2022/05/15 11:12:12;;;;;;;9.83;2.95;;;;;;;17.76;96.86;99262.26;1740721;80;21044;-56
2022/05/15 11:15:09;;;;;;;7.87;2.65;;;;;;;17.82;100.00;99258.98;1722516;80;21480;-56
2022/05/15 11:17:44;;;;;;;8.53;2.13;;;;;;;17.91;96.81;99260.34;1732435;82;21019;-56
2022/05/15 11:20:23;;;;;;;8.83;2.87;;;;;;;17.85;92.67;99250.66;1773307;80;21730;-56
2022/05/15 11:22:54;;;;;;;9.85;3.60;;;;;;;17.94;97.32;99257.48;1772074;80;21023;-55
2022/05/15 11:25:27;;;;;;;11.28;4.80;;;;;;;18.07;93.45;99267.45;1779545;80;21058;-56
2022/05/15 11:27:57;;;;;;;7.80;2.83;;;;;;;18.05;86.08;99269.17;1773406;80;20996;-56
2022/05/15 11:30:40;;;;;;;10.68;6.83;;;;;;;17.82;85.11;99273.31;1769495;80;21082;-53
2022/05/15 11:33:27;;;;;;;8.33;2.50;;;;;;;17.51;88.65;99271.38;1766901;80;21584;-55
2022/05/15 11:36:26;;;;;;;9.03;1.95;;;;;;;17.30;93.86;99274.03;1772194;80;21062;-58
2022/05/15 11:39:17;;;;;;;5.25;1.85;;;;;;;17.20;98.89;99269.69;1766380;80;21086;-57
2022/05/15 11:42:08;;;;;;;8.63;2.10;;;;;;;17.14;92.54;99252.31;1780002;79;21122;-57
2022/05/15 11:44:34;;;;;;;6.95;1.82;;;;;;;17.45;96.33;99258.95;1769342;80;21060;-58
2022/05/15 11:47:03;;;;;;;7.53;2.22;;;;;;;17.69;86.26;99257.83;1757711;80;21630;-59
2022/05/15 11:49:40;;;;;;;9.00;2.30;;;;;;;17.76;89.66;99260.88;1759864;80;20974;-58
2022/05/15 11:52:12;;;;;;;8.68;2.22;;;;;;;17.84;87.22;99256.73;1770614;80;21069;-58
2022/05/15 11:54:48;;;;;;;7.40;2.05;;;;;;;17.97;87.60;99260.38;1773614;80;21070;-58
2022/05/15 11:57:38;;;;;;;10.13;2.47;;;;;;;18.06;90.78;99250.14;1776986;80;21024;-57
2022/05/15 12:00:06;;;;;;;7.78;1.85;;;;;;;18.08;70.57;99260.24;1769537;79;21609;-55
2022/05/15 12:02:41;;;;;;;8.48;2.25;;;;;;;17.97;75.23;99265.08;1774349;80;20931;-57
2022/05/15 12:05:38;;;;;;;6.03;1.70;;;;;;;17.97;73.89;99258.19;1779825;79;21039;-56
2022/05/15 12:08:22;;;;;;;7.53;2.00;;;;;;;17.92;72.99;99264.72;1781262;80;21023;-58
2022/05/15 12:10:52;;;;;;;7.72;1.85;;;;;;;17.81;70.42;99268.41;1760670;79;21435;-58
2022/05/15 12:13:36;;;;;;;7.50;1.70;;;;;;;17.61;75.01;99272.42;1776492;80;21361;-57
2022/05/15 12:16:20;;;;;;;6.58;1.62;;;;;;;17.50;75.86;99258.78;1771842;79;21022;-58